createdAt,value
2023-04-24T00:02:04.619Z,14.50
2023-04-24T00:04:33.061Z,14.40
2023-04-24T00:07:01.173Z,14.50
2023-04-24T00:09:28.283Z,14.50
2023-04-24T00:11:55.348Z,14.40
2023-04-24T00:14:22.531Z,14.40
2023-04-24T00:16:49.930Z,14.30
2023-04-24T00:19:17.877Z,14.40
2023-04-24T00:21:44.849Z,14.50
2023-04-24T00:24:11.938Z,14.40
2023-04-24T00:26:38.879Z,14.20
2023-04-24T00:29:05.709Z,14.30
2023-04-24T00:31:35.934Z,14.20
2023-04-24T00:34:03.539Z,14.20
2023-04-24T00:36:31.788Z,14.10
2023-04-24T00:38:58.829Z,14.10
2023-04-24T00:41:26.694Z,14.10
2023-04-24T00:43:53.947Z,14.10
2023-04-24T00:46:21.891Z,14.10
2023-04-24T00:48:49.168Z,14.10
2023-04-24T00:51:16.898Z,14.20
2023-04-24T00:53:43.827Z,14.30
2023-04-24T00:56:11.718Z,14.30
2023-04-24T00:58:39.415Z,14.50
2023-04-24T01:01:08.159Z,14.70
2023-04-24T01:03:38.338Z,15.00
2023-04-24T01:06:06.672Z,15.10
2023-04-24T01:08:35.813Z,15.20
2023-04-24T01:11:05.790Z,15.30
2023-04-24T01:13:33.902Z,15.50
2023-04-24T01:16:02.093Z,15.60
2023-04-24T01:18:29.941Z,15.90
2023-04-24T01:21:00.606Z,15.80
2023-04-24T01:23:28.110Z,15.80
2023-04-24T01:25:55.519Z,15.80
2023-04-24T01:28:25.630Z,15.90
2023-04-24T01:30:53.778Z,15.90
2023-04-24T01:33:22.949Z,15.70
2023-04-24T01:35:51.440Z,15.50
2023-04-24T01:38:18.367Z,15.30
2023-04-24T01:40:46.083Z,15.20
2023-04-24T01:43:13.970Z,15.10
2023-04-24T01:45:40.897Z,15.00
2023-04-24T01:48:08.177Z,14.90
2023-04-24T01:50:35.582Z,15.10
2023-04-24T01:53:02.502Z,15.00
2023-04-24T01:55:29.574Z,14.90
2023-04-24T01:57:57.663Z,14.90
2023-04-24T02:00:25.941Z,14.90
2023-04-24T02:02:53.254Z,14.90
2023-04-24T02:05:20.412Z,14.80
2023-04-24T02:07:47.382Z,14.70
2023-04-24T02:10:14.380Z,14.80
2023-04-24T02:12:41.738Z,14.80
2023-04-24T02:15:08.954Z,14.80
2023-04-24T02:17:36.039Z,14.90
2023-04-24T02:20:03.450Z,14.80
2023-04-24T02:22:30.410Z,14.80
2023-04-24T02:24:57.400Z,14.80
2023-04-24T02:27:24.689Z,14.90
2023-04-24T02:29:52.006Z,14.80
2023-04-24T02:32:19.133Z,15.00
2023-04-24T02:34:46.548Z,15.00
2023-04-24T02:37:14.025Z,14.90
2023-04-24T02:39:41.159Z,15.00
2023-04-24T02:42:09.091Z,15.00
2023-04-24T02:44:36.159Z,15.20
2023-04-24T02:47:03.046Z,15.30
2023-04-24T02:49:30.305Z,15.30
2023-04-24T02:51:57.258Z,15.60
2023-04-24T02:54:24.314Z,15.70
2023-04-24T02:56:51.615Z,15.80
2023-04-24T02:59:18.432Z,16.10
2023-04-24T03:01:45.531Z,16.40
2023-04-24T03:04:12.819Z,16.50
2023-04-24T03:06:39.946Z,16.50
2023-04-24T03:09:07.331Z,16.60
2023-04-24T03:11:34.257Z,16.80
2023-04-24T03:14:01.081Z,16.80
2023-04-24T03:16:28.142Z,16.80
2023-04-24T03:18:55.205Z,16.80
2023-04-24T03:21:22.143Z,16.90
2023-04-24T03:23:48.991Z,16.90
2023-04-24T03:26:16.249Z,16.90
2023-04-24T03:28:43.396Z,16.80
2023-04-24T03:31:10.491Z,16.80
2023-04-24T03:33:37.401Z,16.80
2023-04-24T03:36:06.097Z,16.80
2023-04-24T03:38:33.421Z,16.80
2023-04-24T03:41:00.439Z,16.90
2023-04-24T03:43:28.487Z,16.90
2023-04-24T03:45:55.464Z,16.90
2023-04-24T03:48:22.831Z,16.90
2023-04-24T03:50:49.646Z,16.80
2023-04-24T03:53:16.628Z,16.80
2023-04-24T03:55:44.110Z,16.60
2023-04-24T03:58:12.267Z,16.50
2023-04-24T04:00:41.316Z,16.30
2023-04-24T04:03:08.428Z,16.30
2023-04-24T04:05:35.615Z,16.20
2023-04-24T04:08:03.152Z,16.30
2023-04-24T04:10:30.032Z,16.40
2023-04-24T04:12:56.961Z,16.30
2023-04-24T04:15:23.914Z,16.20
2023-04-24T04:17:50.976Z,16.20
2023-04-24T04:20:18.606Z,16.10
2023-04-24T04:22:45.482Z,16.00
2023-04-24T04:25:12.678Z,15.90
2023-04-24T04:27:39.928Z,15.80
2023-04-24T04:30:07.395Z,15.90
2023-04-24T04:32:35.693Z,15.90
2023-04-24T04:35:05.711Z,15.90
2023-04-24T04:37:36.153Z,16.00
2023-04-24T04:40:22.338Z,15.90
2023-04-24T04:42:49.270Z,16.00
2023-04-24T04:45:17.906Z,16.10
2023-04-24T04:47:45.519Z,16.10
2023-04-24T04:50:12.821Z,16.10
2023-04-24T04:52:40.129Z,16.00
2023-04-24T04:55:07.607Z,15.90
2023-04-24T04:57:34.914Z,15.90
2023-04-24T05:00:02.421Z,15.80
2023-04-24T05:02:29.490Z,15.60
2023-04-24T05:04:56.835Z,15.70
2023-04-24T05:07:24.343Z,15.70
2023-04-24T05:09:52.654Z,15.70
2023-04-24T05:12:19.485Z,15.60
2023-04-24T05:14:46.418Z,15.60
2023-04-24T05:17:13.405Z,15.60
2023-04-24T05:19:41.117Z,15.60
2023-04-24T05:22:08.496Z,15.50
2023-04-24T05:24:35.624Z,15.50
2023-04-24T05:27:05.897Z,15.50
2023-04-24T05:29:34.242Z,15.40
2023-04-24T05:32:01.730Z,15.40
2023-04-24T05:34:28.687Z,15.50
2023-04-24T05:36:55.595Z,15.50
2023-04-24T05:39:22.694Z,15.40
2023-04-24T05:41:49.582Z,15.40
2023-04-24T05:44:16.473Z,15.40
2023-04-24T05:46:43.467Z,15.30
2023-04-24T05:49:10.319Z,15.40
2023-04-24T05:51:37.603Z,15.40
2023-04-24T05:54:04.626Z,15.30
2023-04-24T05:56:31.976Z,15.30
2023-04-24T05:58:59.256Z,15.40
2023-04-24T06:01:26.579Z,15.40
2023-04-24T06:03:54.576Z,15.40
2023-04-24T06:09:04.728Z,15.40
2023-04-24T06:11:31.747Z,15.40
2023-04-24T06:13:58.683Z,15.50
2023-04-24T06:21:52.647Z,15.60
2023-04-24T06:24:19.903Z,15.20
2023-04-24T06:26:47.028Z,14.70
2023-04-24T06:29:14.359Z,15.70
2023-04-24T06:31:41.761Z,15.70
2023-04-24T06:34:09.353Z,15.80
2023-04-24T06:36:36.616Z,15.80
2023-04-24T06:39:03.582Z,15.90
2023-04-24T06:41:30.916Z,16.00
2023-04-24T06:43:57.852Z,16.10
2023-04-24T06:46:27.173Z,16.10
2023-04-24T06:48:57.811Z,16.30
2023-04-24T06:51:25.641Z,16.40
2023-04-24T06:53:54.512Z,16.40
2023-04-24T06:56:21.527Z,16.50
2023-04-24T06:58:48.568Z,16.60
2023-04-24T07:01:15.923Z,16.70
2023-04-24T07:03:43.296Z,16.70
2023-04-24T07:06:12.373Z,16.80
2023-04-24T07:08:39.379Z,17.00
2023-04-24T07:11:06.820Z,17.30
2023-04-24T07:13:34.066Z,17.40
2023-04-24T07:16:01.034Z,17.50
2023-04-24T07:18:28.271Z,17.50
2023-04-24T07:20:55.379Z,17.50
2023-04-24T07:23:22.513Z,17.70
2023-04-24T07:25:49.505Z,17.70
2023-04-24T07:28:18.641Z,17.60
2023-04-24T07:30:46.115Z,17.40
2023-04-24T07:33:14.344Z,17.40
2023-04-24T07:35:41.549Z,17.30
2023-04-24T07:38:08.838Z,17.30
2023-04-24T07:40:35.856Z,17.30
2023-04-24T07:43:02.729Z,17.50
2023-04-24T07:45:30.141Z,17.60
2023-04-24T07:47:57.347Z,17.60
2023-04-24T07:50:24.295Z,17.50
2023-04-24T07:52:51.278Z,17.40
2023-04-24T07:55:20.314Z,17.30
2023-04-24T07:57:48.572Z,17.20
2023-04-24T08:00:15.991Z,17.10
2023-04-24T08:02:43.072Z,17.00
2023-04-24T08:05:11.213Z,16.90
2023-04-24T08:07:39.004Z,17.10
2023-04-24T08:10:06.647Z,17.20
2023-04-24T08:12:33.641Z,17.30
2023-04-24T08:15:01.169Z,17.30
2023-04-24T08:17:28.637Z,17.10
2023-04-24T08:22:42.197Z,17.20
2023-04-24T08:25:10.425Z,17.30
2023-04-24T08:30:13.142Z,17.20
2023-04-24T08:32:40.656Z,17.20
2023-04-24T08:35:10.285Z,16.70
2023-04-24T08:37:37.632Z,17.70
2023-04-24T08:40:14.120Z,17.60
2023-04-24T08:42:43.021Z,17.60
2023-04-24T08:45:12.454Z,17.60
2023-04-24T08:47:41.205Z,17.70
2023-04-24T08:50:10.625Z,18.00
2023-04-24T08:52:37.916Z,18.30
2023-04-24T09:00:36.068Z,18.60
2023-04-24T09:03:06.102Z,19.40
2023-04-24T09:05:34.777Z,19.00
2023-04-24T09:08:05.911Z,18.40
2023-04-24T09:10:35.834Z,19.50
2023-04-24T09:13:03.302Z,19.60
2023-04-24T09:15:30.720Z,19.60
2023-04-24T09:17:57.756Z,19.60
2023-04-24T09:20:24.856Z,19.70
2023-04-24T09:22:56.559Z,19.90
2023-04-24T09:25:24.536Z,19.90
2023-04-24T09:27:55.807Z,20.10
2023-04-24T09:30:23.914Z,20.10
2023-04-24T09:32:50.915Z,20.00
2023-04-24T09:35:17.887Z,20.10
2023-04-24T09:37:47.693Z,20.20
2023-04-24T09:40:19.080Z,20.30
2023-04-24T09:42:47.685Z,20.40
2023-04-24T09:45:15.880Z,20.10
2023-04-24T09:47:43.909Z,20.10
2023-04-24T09:50:16.360Z,20.10
2023-04-24T09:53:11.821Z,20.20
2023-04-24T09:55:46.884Z,20.40
2023-04-24T09:58:13.842Z,20.70
2023-04-24T10:00:41.371Z,21.00
2023-04-24T10:03:09.678Z,21.30
2023-04-24T10:05:38.125Z,21.30
2023-04-24T10:08:08.498Z,21.30
2023-04-24T10:10:40.267Z,21.30
2023-04-24T10:13:10.873Z,21.50
2023-04-24T10:15:42.470Z,21.50
2023-04-24T10:18:10.908Z,21.40
2023-04-24T10:20:40.890Z,21.50
2023-04-24T10:23:08.589Z,21.80
2023-04-24T10:25:37.871Z,22.00
2023-04-24T10:28:06.459Z,21.80
2023-04-24T10:30:38.453Z,21.70
2023-04-24T10:33:08.944Z,21.70
2023-04-24T10:35:40.545Z,22.00
2023-04-24T10:38:14.949Z,22.20
2023-04-24T10:40:43.393Z,22.20
2023-04-24T10:43:13.167Z,22.10
2023-04-24T10:45:40.984Z,22.50
2023-04-24T10:48:15.249Z,23.20
2023-04-24T10:50:48.387Z,23.40
2023-04-24T10:53:24.404Z,23.40
2023-04-24T10:55:53.234Z,23.70
2023-04-24T10:58:24.595Z,23.80
2023-04-24T11:00:59.948Z,23.80
2023-04-24T11:03:33.499Z,23.50
2023-04-24T11:06:08.719Z,23.30
2023-04-24T11:08:46.901Z,23.00
2023-04-24T11:11:16.804Z,23.10
2023-04-24T11:13:56.558Z,22.90
2023-04-24T11:16:34.800Z,22.30
2023-04-24T11:19:06.723Z,21.70
2023-04-24T11:21:59.222Z,21.40
2023-04-24T11:24:26.961Z,21.10
2023-04-24T11:27:17.834Z,20.80
2023-04-24T11:29:49.563Z,20.40
2023-04-24T11:32:33.684Z,20.10
2023-04-24T11:35:04.533Z,19.80
2023-04-24T11:37:37.330Z,19.60
2023-04-24T11:40:06.759Z,19.30
2023-04-24T11:42:38.115Z,19.20
2023-04-24T11:45:13.635Z,19.20
2023-04-24T11:47:41.481Z,19.30
2023-04-24T11:50:11.058Z,19.10
2023-04-24T11:58:08.902Z,18.80
2023-04-24T12:00:36.584Z,18.70
2023-04-24T12:03:10.690Z,18.50
2023-04-24T12:05:39.605Z,18.80
2023-04-24T12:08:07.741Z,18.80
2023-04-24T12:10:35.952Z,18.70
2023-04-24T12:13:03.157Z,18.90
2023-04-24T12:15:30.555Z,19.20
2023-04-24T12:17:58.657Z,19.60
2023-04-24T12:20:29.936Z,19.90
2023-04-24T12:22:59.031Z,20.30
2023-04-24T12:25:31.064Z,20.50
2023-04-24T12:28:04.368Z,20.60
2023-04-24T12:30:40.716Z,20.50
2023-04-24T12:33:08.151Z,20.60
2023-04-24T12:35:36.821Z,20.60
2023-04-24T12:38:09.102Z,20.70
2023-04-24T12:40:36.890Z,21.00
2023-04-24T12:43:15.523Z,21.10
2023-04-24T12:45:42.579Z,21.40
2023-04-24T12:48:09.881Z,21.70
2023-04-24T12:50:36.802Z,21.80
2023-04-24T12:53:03.829Z,21.80
2023-04-24T12:55:30.758Z,21.80
2023-04-24T12:57:58.017Z,21.70
2023-04-24T13:00:25.591Z,21.60
2023-04-24T13:02:52.611Z,21.50
2023-04-24T13:05:23.589Z,21.30
2023-04-24T13:07:52.099Z,21.10
2023-04-24T13:10:20.124Z,21.00
2023-04-24T13:12:47.490Z,21.00
2023-04-24T13:15:14.769Z,20.90
2023-04-24T13:17:41.803Z,20.50
2023-04-24T13:20:09.215Z,20.30
2023-04-24T13:22:37.162Z,20.10
2023-04-24T13:25:04.588Z,19.80
2023-04-24T13:27:31.584Z,19.60
2023-04-24T13:29:59.526Z,19.40
2023-04-24T13:32:26.582Z,19.30
2023-04-24T13:34:53.645Z,19.10
2023-04-24T13:37:20.766Z,19.10
2023-04-24T13:39:47.672Z,19.00
2023-04-24T13:42:14.839Z,19.00
2023-04-24T13:44:41.821Z,19.00
2023-04-24T13:47:08.767Z,18.90
2023-04-24T13:49:36.308Z,19.00
2023-04-24T13:52:04.063Z,19.10
2023-04-24T13:54:30.990Z,19.10
2023-04-24T13:56:59.668Z,19.00
2023-04-24T13:59:27.015Z,19.00
2023-04-24T14:01:54.549Z,19.00
2023-04-24T14:04:21.984Z,18.90
2023-04-24T14:06:49.427Z,18.70
2023-04-24T14:09:16.490Z,18.60
2023-04-24T14:11:43.478Z,18.60
2023-04-24T14:14:10.382Z,18.60
2023-04-24T14:16:37.655Z,18.50
2023-04-24T14:19:06.071Z,18.40
2023-04-24T14:21:33.670Z,18.50
2023-04-24T14:24:00.625Z,18.50
2023-04-24T14:26:27.621Z,18.40
2023-04-24T14:29:04.111Z,18.40
2023-04-24T14:31:40.949Z,18.50
2023-04-24T14:34:08.377Z,18.60
2023-04-24T14:36:36.102Z,18.50
2023-04-24T14:39:07.303Z,18.50
2023-04-24T14:41:37.021Z,18.40
2023-04-24T14:44:05.045Z,18.30
2023-04-24T14:54:48.115Z,18.30
2023-04-24T14:57:16.503Z,19.00
2023-04-24T14:59:43.590Z,18.20
2023-04-24T15:02:16.621Z,17.90
2023-04-24T15:04:45.060Z,17.60
2023-04-24T15:07:21.198Z,17.10
2023-04-24T15:09:48.656Z,17.00
2023-04-24T15:12:15.993Z,16.90
2023-04-24T15:17:18.751Z,17.00
2023-04-24T15:19:46.310Z,15.40
2023-04-24T15:22:13.288Z,16.20
2023-04-24T15:24:40.171Z,16.60
2023-04-24T15:29:43.325Z,16.20
2023-04-24T15:32:18.900Z,16.00
2023-04-24T15:34:46.014Z,15.70
2023-04-24T15:37:13.156Z,15.60
2023-04-24T15:39:40.604Z,15.50
2023-04-24T15:42:07.492Z,15.40
2023-04-24T15:44:34.444Z,15.50
2023-04-24T15:47:02.657Z,15.50
2023-04-24T15:49:29.890Z,15.50
2023-04-24T15:51:56.701Z,15.50
2023-04-24T15:54:24.050Z,15.50
2023-04-24T15:56:51.715Z,15.30
2023-04-24T15:59:19.267Z,15.20
2023-04-24T16:01:46.456Z,15.20
2023-04-24T16:04:13.648Z,15.20
2023-04-24T16:06:42.026Z,15.10
2023-04-24T16:09:10.830Z,15.10
2023-04-24T16:11:39.661Z,15.00
2023-04-24T16:14:07.457Z,15.00
2023-04-24T16:16:35.554Z,15.10
2023-04-24T16:19:02.976Z,15.10
2023-04-24T16:21:29.882Z,15.10
2023-04-24T16:23:56.784Z,15.10
2023-04-24T16:26:23.740Z,15.10
2023-04-24T16:28:50.791Z,15.10
2023-04-24T16:31:18.226Z,15.10
2023-04-24T16:33:45.109Z,15.10
2023-04-24T16:36:13.462Z,15.10
2023-04-24T16:38:40.267Z,15.00
2023-04-24T16:54:49.294Z,14.50
2023-04-24T16:57:16.898Z,13.10
2023-04-24T16:59:44.203Z,13.10
2023-04-24T17:02:11.769Z,13.80
2023-04-24T17:04:39.251Z,14.40
2023-04-24T17:07:06.129Z,14.50
2023-04-24T17:09:33.148Z,14.50
2023-04-24T17:12:00.007Z,14.40
2023-04-24T17:14:27.032Z,14.50
2023-04-24T17:16:54.465Z,14.50
2023-04-24T17:19:21.498Z,14.40
2023-04-24T17:21:48.406Z,14.40
2023-04-24T17:24:15.379Z,14.30
2023-04-24T17:26:42.280Z,14.30
2023-04-24T17:29:09.696Z,14.30
2023-04-24T17:31:36.950Z,14.40
2023-04-24T17:34:04.131Z,14.40
2023-04-24T17:36:31.692Z,14.40
2023-04-24T17:38:59.204Z,14.40
2023-04-24T17:41:26.791Z,14.40
2023-04-24T17:43:53.756Z,14.40
2023-04-24T17:46:20.847Z,14.30
2023-04-24T17:48:49.518Z,14.30
2023-04-24T17:51:16.798Z,14.40
2023-04-24T17:53:44.657Z,14.40
2023-04-24T17:56:11.694Z,14.40
2023-04-24T17:58:38.740Z,14.20
2023-04-24T18:01:05.917Z,14.00
2023-04-24T18:03:33.354Z,13.90
2023-04-24T18:06:00.421Z,13.80
2023-04-24T18:08:27.698Z,13.80
2023-04-24T18:10:54.607Z,13.70
2023-04-24T18:13:21.471Z,13.70
2023-04-24T18:15:48.367Z,13.60
2023-04-24T18:18:17.726Z,13.60
2023-04-24T18:20:46.035Z,13.50
2023-04-24T18:23:13.101Z,12.20
2023-04-24T18:25:40.097Z,13.60
2023-04-24T18:28:07.515Z,13.70
2023-04-24T18:30:34.898Z,13.70
2023-04-24T18:33:01.952Z,13.70
2023-04-24T18:35:28.928Z,13.80
2023-04-24T18:37:55.902Z,13.80
2023-04-24T18:40:22.967Z,13.90
2023-04-24T18:42:50.400Z,13.80
2023-04-24T18:45:17.804Z,13.80
2023-04-24T18:47:44.807Z,13.80
2023-04-24T18:50:12.482Z,13.70
2023-04-24T18:52:40.578Z,13.60
2023-04-24T18:55:09.811Z,13.60
2023-04-24T18:57:37.226Z,13.60
2023-04-24T19:00:04.704Z,13.60
2023-04-24T19:02:34.497Z,13.80
2023-04-24T19:05:01.655Z,13.70
2023-04-24T19:07:29.359Z,13.60
2023-04-24T19:09:56.275Z,13.50
2023-04-24T19:12:23.218Z,13.60
2023-04-24T19:14:51.729Z,13.50
2023-04-24T19:17:24.433Z,13.50
2023-04-24T19:19:52.319Z,13.50
2023-04-24T19:22:20.896Z,13.60
2023-04-24T19:24:48.518Z,13.60
2023-04-24T19:27:16.024Z,13.60
2023-04-24T19:29:43.001Z,13.60
2023-04-24T19:32:10.016Z,13.50
2023-04-24T19:34:40.433Z,13.60
2023-04-24T19:37:08.266Z,13.60
2023-04-24T19:39:35.266Z,13.60
2023-04-24T19:42:05.858Z,13.60
2023-04-24T19:44:34.798Z,13.70
2023-04-24T19:47:01.729Z,13.60
2023-04-24T19:49:28.706Z,13.50
2023-04-24T19:51:55.703Z,13.50
2023-04-24T19:54:23.233Z,13.60
2023-04-24T19:56:50.182Z,13.50
2023-04-24T19:59:16.988Z,13.50
2023-04-24T20:01:43.994Z,13.50
2023-04-24T20:04:11.984Z,13.60
2023-04-24T20:06:39.630Z,13.60
2023-04-24T20:09:06.598Z,13.40
2023-04-24T20:11:34.541Z,13.40
2023-04-24T20:14:04.146Z,13.50
2023-04-24T20:16:31.434Z,13.40
2023-04-24T20:18:59.022Z,13.40
2023-04-24T20:21:26.637Z,13.40
2023-04-24T20:23:53.648Z,13.30
2023-04-24T20:26:20.616Z,13.40
2023-04-24T20:28:48.176Z,13.40
2023-04-24T20:31:15.894Z,13.30
2023-04-24T20:33:42.864Z,13.30
2023-04-24T20:36:10.325Z,13.40
2023-04-24T20:38:37.825Z,13.30
2023-04-24T20:41:05.515Z,13.30
2023-04-24T20:43:32.482Z,13.30
2023-04-24T20:45:59.896Z,13.30
2023-04-24T20:48:27.062Z,13.30
2023-04-24T20:50:55.050Z,13.20
2023-04-24T20:53:22.141Z,13.30
2023-04-24T20:55:49.247Z,13.40
2023-04-24T20:58:18.587Z,13.40
2023-04-24T21:00:47.061Z,13.40
2023-04-24T21:03:14.357Z,13.30
2023-04-24T21:05:41.387Z,13.30
2023-04-24T21:08:08.327Z,13.40
2023-04-24T21:10:35.315Z,13.30
2023-04-24T21:13:02.455Z,13.30
2023-04-24T21:15:29.833Z,13.20
2023-04-24T21:17:57.043Z,13.20
2023-04-24T21:20:24.042Z,13.30
2023-04-24T21:22:50.999Z,13.30
2023-04-24T21:25:18.283Z,13.30
2023-04-24T21:27:45.857Z,13.30
2023-04-24T21:30:13.182Z,13.20
2023-04-24T21:32:40.669Z,13.20
2023-04-24T21:35:08.027Z,13.20
2023-04-24T21:37:35.886Z,13.10
2023-04-24T21:40:04.894Z,13.00
2023-04-24T21:42:32.637Z,12.90
2023-04-24T21:45:00.062Z,12.90
2023-04-24T21:47:27.004Z,12.90
2023-04-24T21:49:53.988Z,12.80
2023-04-24T21:52:20.810Z,12.70
2023-04-24T21:54:48.316Z,12.70
2023-04-24T21:57:15.869Z,12.70
2023-04-24T21:59:43.030Z,12.70
2023-04-24T22:02:10.459Z,12.70
2023-04-24T22:04:37.706Z,12.60
2023-04-24T22:07:05.003Z,12.70
2023-04-24T22:09:32.005Z,12.60
2023-04-24T22:11:58.919Z,12.60
2023-04-24T22:14:26.712Z,12.70
2023-04-24T22:16:57.177Z,12.60
2023-04-24T22:19:26.322Z,12.70
2023-04-24T22:21:53.372Z,12.60
2023-04-24T22:24:20.481Z,12.60
2023-04-24T22:26:47.517Z,12.60
2023-04-24T22:29:14.641Z,12.70
2023-04-24T22:31:42.410Z,12.70
2023-04-24T22:34:09.588Z,12.70
2023-04-24T22:36:36.956Z,12.80
2023-04-24T22:39:05.265Z,12.80
2023-04-24T22:41:32.262Z,12.70
2023-04-24T22:43:59.531Z,12.70
2023-04-24T22:46:27.045Z,12.60
2023-04-24T22:48:54.469Z,12.60
2023-04-24T22:51:21.425Z,12.60
2023-04-24T22:53:49.751Z,12.60
2023-04-24T23:02:01.806Z,12.50
2023-04-24T23:04:29.420Z,12.50
2023-04-24T23:06:56.600Z,12.60
2023-04-24T23:09:23.529Z,12.50
2023-04-24T23:15:02.646Z,12.50
2023-04-24T23:17:29.641Z,12.50
2023-04-24T23:19:56.622Z,12.40
2023-04-24T23:22:23.942Z,12.30
2023-04-24T23:24:51.579Z,12.10
2023-04-24T23:27:18.615Z,12.20
2023-04-24T23:29:46.013Z,12.20
2023-04-24T23:32:12.894Z,12.10
2023-04-24T23:34:41.111Z,12.10
2023-04-24T23:37:08.233Z,12.00
2023-04-24T23:39:36.067Z,12.00
2023-04-24T23:44:48.705Z,12.10
2023-04-24T23:47:31.315Z,12.10
2023-04-24T23:49:58.210Z,12.10
2023-04-24T23:55:20.881Z,12.10
2023-04-24T23:57:54.679Z,12.00
